Hauptseite
METAR-TAF:

METAR-TAF

Flughäfen :

Flughafen Münster/Osnabrück

Münster-Osnabrück, Deutschland

Breite: 52-08N, Länge: 007-42E, Höhe: 48 m

Beobachtung

Neuester Wetterbericht von vor 16 Minuten, um 15:50 UTC
Wind 2 kt aus unterschiedlichen Richtungen
Temperatur 27°C
Luftfeuchtigkeit 30%
Luftdruck 1024 hPa
Sichtweite 10 km oder mehr
keine Wolken unter 1500 m und keine Kumulonimbus oder Gewitterwolken

METAR: EDDG 231550Z VRB02KT CAVOK 27/08 Q1024 NOSIG

Zeit: 18:06 (16:06 UTC)

Prognose

Neuester Wetterbericht von vor 5 Stunden und 6 Minuten, um 11:00 UTC
Gültige Prognose vom 23 um 12 UTC bis 24 um 12 UTC
Wind 4 kt aus Nord
Sichtweite 10 km oder mehr
keine Wolken unter 1500 m und keine Kumulonimbus oder Gewitterwolken
Übergehend zu
vom 24 um 06 UTC bis 24 um 09 UTC
Wind 6 kt aus Ost

TAF: EDDG 231100Z 2312/2412 01004KT CAVOK BECMG 2406/2409 09006KT

Wetterbeobachtungen und Prognosen von mehr als 4000 Flughäfen (METAR und TAF Bericht).

Die verfügbaren Stationen werden durch gelbe und rote Markierungen auf der Karte dargestellt.

Führen Sie die Maus auf sie, um den Namen der Station zu sehen.

Darauf klicken, um die Beobachtung von Wetterbeobachtungen und Prognosen zu sehen.

Um die Karte zu ändern : klicken Sie auf den grünen Tasten mit einem schwarzen Kreuz Zum Vergrößern, auf den grünen Button mit einem Gedankenstrich zu verkleinern, oder auf die grünen Pfeile für benachbarte Karten.


METAR-TAF: